<?xml version="1.0" encoding="UTF-8" standalone="no" ?>
<gpx xmlns="http://www.topografix.com/GPX/1/1" xmlns:xsi="http://www.w3.org/2001/XMLSchema-instance" xsi:schemaLocation="http://www.topografix.com/GPX/1/1 http://www.topografix.com/GPX/1/1/gpx.xsd" version="1.1" creator="VisuGPX - https://www.visugpx.com">
  <metadata>
    <name>Boucle de Pailharès</name>
    <desc><![CDATA[Merci Visorando!]]></desc>
  </metadata>
  <wpt lat="45.09406" lon="4.65209">
    <ele>619.3</ele>
    <name><![CDATA[Hameau de Balayn]]></name>
  </wpt>
  <wpt lat="45.09646" lon="4.64605">
    <ele>616.3</ele>
    <name><![CDATA[Traversée de la D532]]></name>
  </wpt>
  <wpt lat="45.09693" lon="4.63983">
    <ele>582.6</ele>
    <name><![CDATA[À droite vers Juny]]></name>
  </wpt>
  <wpt lat="45.09727" lon="4.63634">
    <ele>571.1</ele>
    <name><![CDATA[Chemin des Bruyères]]></name>
  </wpt>
  <wpt lat="45.09808" lon="4.62522">
    <ele>553.1</ele>
    <name><![CDATA[Traversée de la Vivance ]]></name>
  </wpt>
  <wpt lat="45.09595" lon="4.62945">
    <ele>550.8</ele>
    <name><![CDATA[Chemin vers Sauze]]></name>
  </wpt>
  <wpt lat="45.09555" lon="4.6293">
    <ele>553.2</ele>
    <name><![CDATA[Chemin vers Sauze]]></name>
  </wpt>
  <wpt lat="45.0953" lon="4.62031">
    <ele>659.9</ele>
    <name><![CDATA[Brudon]]></name>
  </wpt>
  <wpt lat="45.09677" lon="4.6097">
    <ele>709.7</ele>
    <name><![CDATA[Col du Gibet]]></name>
  </wpt>
  <wpt lat="45.10001" lon="4.58459">
    <ele>869.5</ele>
    <name><![CDATA[À gauche à la route]]></name>
  </wpt>
  <wpt lat="45.09969" lon="4.57761">
    <ele>849.2</ele>
    <name><![CDATA[Chemin du Martinet]]></name>
  </wpt>
  <wpt lat="45.09801" lon="4.57683">
    <ele>766.4</ele>
    <name><![CDATA[Chemin de Théolier]]></name>
  </wpt>
  <wpt lat="45.09526" lon="4.57245">
    <ele>762.4</ele>
    <name><![CDATA[Châtaignier - intersection]]></name>
  </wpt>
  <wpt lat="45.08609" lon="4.57304">
    <ele>713.6</ele>
    <name><![CDATA[Intersection chemin  après Fontay]]></name>
  </wpt>
  <wpt lat="45.07821" lon="4.56553">
    <ele>685.5</ele>
    <name><![CDATA[Pailharès - Lavoir]]></name>
  </wpt>
  <wpt lat="45.08188" lon="4.58098">
    <ele>551.2</ele>
    <name><![CDATA[Croix]]></name>
  </wpt>
  <wpt lat="45.08078" lon="4.5831">
    <ele>544.8</ele>
    <name><![CDATA[Passerelle sur la Daronne]]></name>
  </wpt>
  <wpt lat="45.08124" lon="4.59088">
    <ele>527.3</ele>
    <name><![CDATA[Intersection route de Saint-Félicien]]></name>
  </wpt>
  <wpt lat="45.0826" lon="4.60163">
    <ele>516.3</ele>
    <name><![CDATA[Chemin de Malgaray]]></name>
  </wpt>
  <wpt lat="45.0848" lon="4.60608">
    <ele>608.2</ele>
    <name><![CDATA[Barrière]]></name>
  </wpt>
  <wpt lat="45.08392" lon="4.62172">
    <ele>565.4</ele>
    <name><![CDATA[Carrefour]]></name>
    <type><![CDATA[ piste à droite]]></type>
  </wpt>
  <wpt lat="45.08453" lon="4.62712">
    <ele>530.5</ele>
    <name><![CDATA[Carrefour des pompiers]]></name>
  </wpt>
  <wpt lat="45.08735" lon="4.63026">
    <ele>515.1</ele>
    <name><![CDATA[Départ de chemin balisé à droite]]></name>
  </wpt>
  <wpt lat="45.09085" lon="4.64">
    <ele>558.5</ele>
    <name><![CDATA[À droite à la D532]]></name>
  </wpt>
  <wpt lat="45.08545" lon="4.64236">
    <ele>562.5</ele>
    <name><![CDATA[Chemin à gauche avant Douny]]></name>
  </wpt>
  <wpt lat="45.09342" lon="4.64538">
    <ele>629.3</ele>
    <name><![CDATA[Montpeyroux]]></name>
  </wpt>
  <wpt lat="45.09398" lon="4.65203">
    <ele>619.6</ele>
    <name><![CDATA[Hameau de Balayn]]></name>
  </wpt>
  <trk>
    <name><![CDATA[Boucle de Pailharès]]></name>
    <trkseg>
      <trkpt lat="45.09406" lon="4.65209">
        <ele>619</ele>
        <time>2019-08-21T18:40:42 02:00</time>
      </trkpt>
      <trkpt lat="45.09442" lon="4.65228">
        <ele>614</ele>
        <time>2019-08-21T18:40:47 02:00</time>
      </trkpt>
      <trkpt lat="45.09463" lon="4.652">
        <ele>612</ele>
        <time>2019-08-21T18:40:52 02:00</time>
      </trkpt>
      <trkpt lat="45.09488" lon="4.65155">
        <ele>611</ele>
        <time>2019-08-21T18:40:57 02:00</time>
      </trkpt>
      <trkpt lat="45.0954" lon="4.65088">
        <ele>611</ele>
        <time>2019-08-21T18:41:02 02:00</time>
      </trkpt>
      <trkpt lat="45.09582" lon="4.65047">
        <ele>611</ele>
        <time>2019-08-21T18:41:07 02:00</time>
      </trkpt>
      <trkpt lat="45.09609" lon="4.64974">
        <ele>615</ele>
        <time>2019-08-21T18:41:12 02:00</time>
      </trkpt>
      <trkpt lat="45.09622" lon="4.64933">
        <ele>616</ele>
        <time>2019-08-21T18:41:17 02:00</time>
      </trkpt>
      <trkpt lat="45.09646" lon="4.64904">
        <ele>615</ele>
        <time>2019-08-21T18:41:22 02:00</time>
      </trkpt>
      <trkpt lat="45.0958" lon="4.6484">
        <ele>622</ele>
        <time>2019-08-21T18:41:27 02:00</time>
      </trkpt>
      <trkpt lat="45.09571" lon="4.64711">
        <ele>624</ele>
        <time>2019-08-21T18:41:32 02:00</time>
      </trkpt>
      <trkpt lat="45.0955" lon="4.64657">
        <ele>625</ele>
        <time>2019-08-21T18:41:37 02:00</time>
      </trkpt>
      <trkpt lat="45.09542" lon="4.64604">
        <ele>621</ele>
        <time>2019-08-21T18:41:42 02:00</time>
      </trkpt>
      <trkpt lat="45.096" lon="4.64592">
        <ele>614</ele>
        <time>2019-08-21T18:41:47 02:00</time>
      </trkpt>
      <trkpt lat="45.09646" lon="4.64605">
        <ele>616</ele>
        <time>2019-08-21T18:41:52 02:00</time>
      </trkpt>
      <trkpt lat="45.09641" lon="4.64557">
        <ele>613</ele>
        <time>2019-08-21T18:41:57 02:00</time>
      </trkpt>
      <trkpt lat="45.09652" lon="4.64513">
        <ele>612</ele>
        <time>2019-08-21T18:42:02 02:00</time>
      </trkpt>
      <trkpt lat="45.09671" lon="4.64434">
        <ele>607</ele>
        <time>2019-08-21T18:42:07 02:00</time>
      </trkpt>
      <trkpt lat="45.09704" lon="4.64363">
        <ele>608</ele>
        <time>2019-08-21T18:42:12 02:00</time>
      </trkpt>
      <trkpt lat="45.0966" lon="4.64247">
        <ele>593</ele>
        <time>2019-08-21T18:42:17 02:00</time>
      </trkpt>
      <trkpt lat="45.09654" lon="4.6421">
        <ele>589</ele>
        <time>2019-08-21T18:42:22 02:00</time>
      </trkpt>
      <trkpt lat="45.09664" lon="4.64183">
        <ele>588</ele>
        <time>2019-08-21T18:42:27 02:00</time>
      </trkpt>
      <trkpt lat="45.09694" lon="4.64155">
        <ele>592</ele>
        <time>2019-08-21T18:42:32 02:00</time>
      </trkpt>
      <trkpt lat="45.09718" lon="4.6411">
        <ele>592</ele>
        <time>2019-08-21T18:42:37 02:00</time>
      </trkpt>
      <trkpt lat="45.09721" lon="4.64073">
        <ele>590</ele>
        <time>2019-08-21T18:42:42 02:00</time>
      </trkpt>
      <trkpt lat="45.09711" lon="4.64019">
        <ele>586</ele>
        <time>2019-08-21T18:42:47 02:00</time>
      </trkpt>
      <trkpt lat="45.09693" lon="4.63983">
        <ele>581</ele>
        <time>2019-08-21T18:42:52 02:00</time>
      </trkpt>
      <trkpt lat="45.09686" lon="4.63818">
        <ele>578</ele>
        <time>2019-08-21T18:42:57 02:00</time>
      </trkpt>
      <trkpt lat="45.09691" lon="4.63736">
        <ele>576</ele>
        <time>2019-08-21T18:43:02 02:00</time>
      </trkpt>
      <trkpt lat="45.0971" lon="4.63677">
        <ele>574</ele>
        <time>2019-08-21T18:43:07 02:00</time>
      </trkpt>
      <trkpt lat="45.09724" lon="4.63662">
        <ele>574</ele>
        <time>2019-08-21T18:43:12 02:00</time>
      </trkpt>
      <trkpt lat="45.09727" lon="4.63634">
        <ele>572</ele>
        <time>2019-08-21T18:43:17 02:00</time>
      </trkpt>
      <trkpt lat="45.0978" lon="4.63591">
        <ele>573</ele>
        <time>2019-08-21T18:43:22 02:00</time>
      </trkpt>
      <trkpt lat="45.09784" lon="4.63548">
        <ele>574</ele>
        <time>2019-08-21T18:43:27 02:00</time>
      </trkpt>
      <trkpt lat="45.09771" lon="4.63475">
        <ele>572</ele>
        <time>2019-08-21T18:43:32 02:00</time>
      </trkpt>
      <trkpt lat="45.09778" lon="4.63403">
        <ele>573</ele>
        <time>2019-08-21T18:43:37 02:00</time>
      </trkpt>
      <trkpt lat="45.09799" lon="4.63342">
        <ele>574</ele>
        <time>2019-08-21T18:43:42 02:00</time>
      </trkpt>
      <trkpt lat="45.09846" lon="4.63232">
        <ele>571</ele>
        <time>2019-08-21T18:43:47 02:00</time>
      </trkpt>
      <trkpt lat="45.09878" lon="4.63181">
        <ele>568</ele>
        <time>2019-08-21T18:43:52 02:00</time>
      </trkpt>
      <trkpt lat="45.09923" lon="4.63145">
        <ele>568</ele>
        <time>2019-08-21T18:43:57 02:00</time>
      </trkpt>
      <trkpt lat="45.09954" lon="4.6308">
        <ele>561</ele>
        <time>2019-08-21T18:44:02 02:00</time>
      </trkpt>
      <trkpt lat="45.1" lon="4.63025">
        <ele>565</ele>
        <time>2019-08-21T18:44:07 02:00</time>
      </trkpt>
      <trkpt lat="45.1001" lon="4.62974">
        <ele>567</ele>
        <time>2019-08-21T18:44:12 02:00</time>
      </trkpt>
      <trkpt lat="45.09989" lon="4.62928">
        <ele>568</ele>
        <time>2019-08-21T18:44:17 02:00</time>
      </trkpt>
      <trkpt lat="45.09961" lon="4.62913">
        <ele>565</ele>
        <time>2019-08-21T18:44:22 02:00</time>
      </trkpt>
      <trkpt lat="45.09855" lon="4.62758">
        <ele>563</ele>
        <time>2019-08-21T18:44:27 02:00</time>
      </trkpt>
      <trkpt lat="45.09846" lon="4.6273">
        <ele>560</ele>
        <time>2019-08-21T18:44:32 02:00</time>
      </trkpt>
      <trkpt lat="45.09855" lon="4.62702">
        <ele>562</ele>
        <time>2019-08-21T18:44:37 02:00</time>
      </trkpt>
      <trkpt lat="45.09844" lon="4.62653">
        <ele>556</ele>
        <time>2019-08-21T18:44:42 02:00</time>
      </trkpt>
      <trkpt lat="45.09838" lon="4.62596">
        <ele>550</ele>
        <time>2019-08-21T18:44:47 02:00</time>
      </trkpt>
      <trkpt lat="45.09843" lon="4.62543">
        <ele>550</ele>
        <time>2019-08-21T18:44:52 02:00</time>
      </trkpt>
      <trkpt lat="45.09849" lon="4.62511">
        <ele>550</ele>
        <time>2019-08-21T18:44:57 02:00</time>
      </trkpt>
      <trkpt lat="45.09849" lon="4.62488">
        <ele>552</ele>
        <time>2019-08-21T18:45:02 02:00</time>
      </trkpt>
      <trkpt lat="45.09827" lon="4.62487">
        <ele>552</ele>
        <time>2019-08-21T18:45:07 02:00</time>
      </trkpt>
      <trkpt lat="45.09808" lon="4.62522">
        <ele>552</ele>
        <time>2019-08-21T18:45:12 02:00</time>
      </trkpt>
      <trkpt lat="45.09786" lon="4.62535">
        <ele>556</ele>
        <time>2019-08-21T18:45:17 02:00</time>
      </trkpt>
      <trkpt lat="45.0975" lon="4.6263">
        <ele>555</ele>
        <time>2019-08-21T18:45:22 02:00</time>
      </trkpt>
      <trkpt lat="45.09692" lon="4.62721">
        <ele>563</ele>
        <time>2019-08-21T18:45:27 02:00</time>
      </trkpt>
      <trkpt lat="45.09678" lon="4.62786">
        <ele>559</ele>
        <time>2019-08-21T18:45:32 02:00</time>
      </trkpt>
      <trkpt lat="45.09672" lon="4.62846">
        <ele>554</ele>
        <time>2019-08-21T18:45:37 02:00</time>
      </trkpt>
      <trkpt lat="45.09665" lon="4.62894">
        <ele>552</ele>
        <time>2019-08-21T18:45:42 02:00</time>
      </trkpt>
      <trkpt lat="45.09628" lon="4.62929">
        <ele>552</ele>
        <time>2019-08-21T18:45:47 02:00</time>
      </trkpt>
      <trkpt lat="45.09595" lon="4.62945">
        <ele>553</ele>
        <time>2019-08-21T18:45:52 02:00</time>
      </trkpt>
      <trkpt lat="45.09555" lon="4.6293">
        <ele>556</ele>
        <time>2019-08-21T18:45:57 02:00</time>
      </trkpt>
      <trkpt lat="45.09542" lon="4.62908">
        <ele>559</ele>
        <time>2019-08-21T18:46:02 02:00</time>
      </trkpt>
      <trkpt lat="45.09562" lon="4.62889">
        <ele>562</ele>
        <time>2019-08-21T18:46:07 02:00</time>
      </trkpt>
      <trkpt lat="45.09542" lon="4.62859">
        <ele>566</ele>
        <time>2019-08-21T18:46:12 02:00</time>
      </trkpt>
      <trkpt lat="45.09517" lon="4.62831">
        <ele>570</ele>
        <time>2019-08-21T18:46:17 02:00</time>
      </trkpt>
      <trkpt lat="45.0951" lon="4.62799">
        <ele>572</ele>
        <time>2019-08-21T18:46:22 02:00</time>
      </trkpt>
      <trkpt lat="45.09548" lon="4.62814">
        <ele>573</ele>
        <time>2019-08-21T18:46:27 02:00</time>
      </trkpt>
      <trkpt lat="45.09575" lon="4.6276">
        <ele>582</ele>
        <time>2019-08-21T18:46:32 02:00</time>
      </trkpt>
      <trkpt lat="45.09549" lon="4.62698">
        <ele>587</ele>
        <time>2019-08-21T18:46:37 02:00</time>
      </trkpt>
      <trkpt lat="45.09543" lon="4.62657">
        <ele>591</ele>
        <time>2019-08-21T18:46:42 02:00</time>
      </trkpt>
      <trkpt lat="45.09566" lon="4.62644">
        <ele>595</ele>
        <time>2019-08-21T18:46:47 02:00</time>
      </trkpt>
      <trkpt lat="45.09584" lon="4.62617">
        <ele>600</ele>
        <time>2019-08-21T18:46:52 02:00</time>
      </trkpt>
      <trkpt lat="45.09563" lon="4.62617">
        <ele>599</ele>
        <time>2019-08-21T18:46:57 02:00</time>
      </trkpt>
      <trkpt lat="45.09557" lon="4.62599">
        <ele>600</ele>
        <time>2019-08-21T18:47:02 02:00</time>
      </trkpt>
      <trkpt lat="45.09546" lon="4.62507">
        <ele>614</ele>
        <time>2019-08-21T18:47:07 02:00</time>
      </trkpt>
      <trkpt lat="45.09545" lon="4.62444">
        <ele>620</ele>
        <time>2019-08-21T18:47:12 02:00</time>
      </trkpt>
      <trkpt lat="45.09531" lon="4.62385">
        <ele>623</ele>
        <time>2019-08-21T18:47:17 02:00</time>
      </trkpt>
      <trkpt lat="45.09505" lon="4.62241">
        <ele>632</ele>
        <time>2019-08-21T18:47:22 02:00</time>
      </trkpt>
      <trkpt lat="45.09492" lon="4.62177">
        <ele>640</ele>
        <time>2019-08-21T18:47:27 02:00</time>
      </trkpt>
      <trkpt lat="45.09502" lon="4.62127">
        <ele>647</ele>
        <time>2019-08-21T18:47:32 02:00</time>
      </trkpt>
      <trkpt lat="45.0953" lon="4.62087">
        <ele>651</ele>
        <time>2019-08-21T18:47:37 02:00</time>
      </trkpt>
      <trkpt lat="45.09533" lon="4.62065">
        <ele>654</ele>
        <time>2019-08-21T18:47:42 02:00</time>
      </trkpt>
      <trkpt lat="45.0953" lon="4.62031">
        <ele>662</ele>
        <time>2019-08-21T18:47:47 02:00</time>
      </trkpt>
      <trkpt lat="45.09554" lon="4.62001">
        <ele>664</ele>
        <time>2019-08-21T18:47:52 02:00</time>
      </trkpt>
      <trkpt lat="45.09592" lon="4.61975">
        <ele>665</ele>
        <time>2019-08-21T18:47:57 02:00</time>
      </trkpt>
      <trkpt lat="45.0963" lon="4.61915">
        <ele>675</ele>
        <time>2019-08-21T18:48:02 02:00</time>
      </trkpt>
      <trkpt lat="45.09696" lon="4.61904">
        <ele>674</ele>
        <time>2019-08-21T18:48:07 02:00</time>
      </trkpt>
      <trkpt lat="45.09716" lon="4.61911">
        <ele>673</ele>
        <time>2019-08-21T18:48:12 02:00</time>
      </trkpt>
      <trkpt lat="45.09825" lon="4.61814">
        <ele>684</ele>
        <time>2019-08-21T18:48:17 02:00</time>
      </trkpt>
      <trkpt lat="45.09901" lon="4.6172">
        <ele>688</ele>
        <time>2019-08-21T18:48:22 02:00</time>
      </trkpt>
      <trkpt lat="45.09908" lon="4.61694">
        <ele>690</ele>
        <time>2019-08-21T18:48:27 02:00</time>
      </trkpt>
      <trkpt lat="45.09907" lon="4.6164">
        <ele>693</ele>
        <time>2019-08-21T18:48:32 02:00</time>
      </trkpt>
      <trkpt lat="45.09892" lon="4.61518">
        <ele>690</ele>
        <time>2019-08-21T18:48:37 02:00</time>
      </trkpt>
      <trkpt lat="45.09828" lon="4.61439">
        <ele>693</ele>
        <time>2019-08-21T18:48:42 02:00</time>
      </trkpt>
      <trkpt lat="45.09796" lon="4.61397">
        <ele>699</ele>
        <time>2019-08-21T18:48:47 02:00</time>
      </trkpt>
      <trkpt lat="45.09783" lon="4.61262">
        <ele>705</ele>
        <time>2019-08-21T18:48:52 02:00</time>
      </trkpt>
      <trkpt lat="45.09751" lon="4.61127">
        <ele>707</ele>
        <time>2019-08-21T18:48:57 02:00</time>
      </trkpt>
      <trkpt lat="45.09737" lon="4.61099">
        <ele>709</ele>
        <time>2019-08-21T18:49:02 02:00</time>
      </trkpt>
      <trkpt lat="45.09713" lon="4.60997">
        <ele>707</ele>
        <time>2019-08-21T18:49:07 02:00</time>
      </trkpt>
      <trkpt lat="45.09677" lon="4.6097">
        <ele>712</ele>
        <time>2019-08-21T18:49:12 02:00</time>
      </trkpt>
      <trkpt lat="45.09689" lon="4.60895">
        <ele>710</ele>
        <time>2019-08-21T18:49:17 02:00</time>
      </trkpt>
      <trkpt lat="45.09681" lon="4.60775">
        <ele>716</ele>
        <time>2019-08-21T18:49:22 02:00</time>
      </trkpt>
      <trkpt lat="45.09643" lon="4.60647">
        <ele>726</ele>
        <time>2019-08-21T18:49:27 02:00</time>
      </trkpt>
      <trkpt lat="45.09616" lon="4.60544">
        <ele>730</ele>
        <time>2019-08-21T18:49:32 02:00</time>
      </trkpt>
      <trkpt lat="45.09601" lon="4.60404">
        <ele>740</ele>
        <time>2019-08-21T18:49:37 02:00</time>
      </trkpt>
      <trkpt lat="45.09604" lon="4.60342">
        <ele>742</ele>
        <time>2019-08-21T18:49:42 02:00</time>
      </trkpt>
      <trkpt lat="45.0968" lon="4.60228">
        <ele>758</ele>
        <time>2019-08-21T18:49:47 02:00</time>
      </trkpt>
      <trkpt lat="45.09693" lon="4.60132">
        <ele>758</ele>
        <time>2019-08-21T18:49:52 02:00</time>
      </trkpt>
      <trkpt lat="45.0971" lon="4.6004">
        <ele>761</ele>
        <time>2019-08-21T18:49:57 02:00</time>
      </trkpt>
      <trkpt lat="45.09733" lon="4.59973">
        <ele>768</ele>
        <time>2019-08-21T18:50:02 02:00</time>
      </trkpt>
      <trkpt lat="45.09742" lon="4.59889">
        <ele>775</ele>
        <time>2019-08-21T18:50:07 02:00</time>
      </trkpt>
      <trkpt lat="45.09721" lon="4.59778">
        <ele>778</ele>
        <time>2019-08-21T18:50:12 02:00</time>
      </trkpt>
      <trkpt lat="45.09713" lon="4.59673">
        <ele>781</ele>
        <time>2019-08-21T18:50:17 02:00</time>
      </trkpt>
      <trkpt lat="45.09705" lon="4.59559">
        <ele>778</ele>
        <time>2019-08-21T18:50:22 02:00</time>
      </trkpt>
      <trkpt lat="45.09704" lon="4.59499">
        <ele>778</ele>
        <time>2019-08-21T18:50:27 02:00</time>
      </trkpt>
      <trkpt lat="45.09644" lon="4.59407">
        <ele>792</ele>
        <time>2019-08-21T18:50:32 02:00</time>
      </trkpt>
      <trkpt lat="45.09554" lon="4.59291">
        <ele>805</ele>
        <time>2019-08-21T18:50:37 02:00</time>
      </trkpt>
      <trkpt lat="45.09516" lon="4.59209">
        <ele>805</ele>
        <time>2019-08-21T18:50:42 02:00</time>
      </trkpt>
      <trkpt lat="45.09512" lon="4.59061">
        <ele>815</ele>
        <time>2019-08-21T18:50:47 02:00</time>
      </trkpt>
      <trkpt lat="45.09521" lon="4.58932">
        <ele>827</ele>
        <time>2019-08-21T18:50:52 02:00</time>
      </trkpt>
      <trkpt lat="45.09499" lon="4.58814">
        <ele>829</ele>
        <time>2019-08-21T18:50:57 02:00</time>
      </trkpt>
      <trkpt lat="45.09495" lon="4.58746">
        <ele>826</ele>
        <time>2019-08-21T18:51:02 02:00</time>
      </trkpt>
      <trkpt lat="45.0951" lon="4.5869">
        <ele>825</ele>
        <time>2019-08-21T18:51:07 02:00</time>
      </trkpt>
      <trkpt lat="45.0954" lon="4.58675">
        <ele>827</ele>
        <time>2019-08-21T18:51:12 02:00</time>
      </trkpt>
      <trkpt lat="45.09595" lon="4.58705">
        <ele>835</ele>
        <time>2019-08-21T18:51:17 02:00</time>
      </trkpt>
      <trkpt lat="45.09674" lon="4.58743">
        <ele>844</ele>
        <time>2019-08-21T18:51:22 02:00</time>
      </trkpt>
      <trkpt lat="45.09777" lon="4.58718">
        <ele>849</ele>
        <time>2019-08-21T18:51:27 02:00</time>
      </trkpt>
      <trkpt lat="45.09817" lon="4.58692">
        <ele>848</ele>
        <time>2019-08-21T18:51:32 02:00</time>
      </trkpt>
      <trkpt lat="45.09856" lon="4.58676">
        <ele>849</ele>
        <time>2019-08-21T18:51:37 02:00</time>
      </trkpt>
      <trkpt lat="45.09879" lon="4.58657">
        <ele>849</ele>
        <time>2019-08-21T18:51:42 02:00</time>
      </trkpt>
      <trkpt lat="45.0989" lon="4.5867">
        <ele>850</ele>
        <time>2019-08-21T18:51:47 02:00</time>
      </trkpt>
      <trkpt lat="45.09901" lon="4.58675">
        <ele>851</ele>
        <time>2019-08-21T18:51:52 02:00</time>
      </trkpt>
      <trkpt lat="45.0992" lon="4.58646">
        <ele>852</ele>
        <time>2019-08-21T18:51:57 02:00</time>
      </trkpt>
      <trkpt lat="45.09917" lon="4.58614">
        <ele>853</ele>
        <time>2019-08-21T18:52:02 02:00</time>
      </trkpt>
      <trkpt lat="45.09919" lon="4.58585">
        <ele>854</ele>
        <time>2019-08-21T18:52:07 02:00</time>
      </trkpt>
      <trkpt lat="45.0996" lon="4.58518">
        <ele>857</ele>
        <time>2019-08-21T18:52:12 02:00</time>
      </trkpt>
      <trkpt lat="45.10001" lon="4.58459">
        <ele>869</ele>
        <time>2019-08-21T18:52:17 02:00</time>
      </trkpt>
      <trkpt lat="45.09969" lon="4.58425">
        <ele>869</ele>
        <time>2019-08-21T18:52:22 02:00</time>
      </trkpt>
      <trkpt lat="45.09959" lon="4.5839">
        <ele>868</ele>
        <time>2019-08-21T18:52:27 02:00</time>
      </trkpt>
      <trkpt lat="45.09958" lon="4.58355">
        <ele>869</ele>
        <time>2019-08-21T18:52:32 02:00</time>
      </trkpt>
      <trkpt lat="45.09975" lon="4.58256">
        <ele>867</ele>
        <time>2019-08-21T18:52:37 02:00</time>
      </trkpt>
      <trkpt lat="45.10004" lon="4.58119">
        <ele>862</ele>
        <time>2019-08-21T18:52:42 02:00</time>
      </trkpt>
      <trkpt lat="45.1002" lon="4.57981">
        <ele>858</ele>
        <time>2019-08-21T18:52:47 02:00</time>
      </trkpt>
      <trkpt lat="45.10005" lon="4.57928">
        <ele>852</ele>
        <time>2019-08-21T18:52:52 02:00</time>
      </trkpt>
      <trkpt lat="45.09969" lon="4.57761">
        <ele>852</ele>
        <time>2019-08-21T18:52:57 02:00</time>
      </trkpt>
      <trkpt lat="45.09961" lon="4.57686">
        <ele>840</ele>
        <time>2019-08-21T18:53:02 02:00</time>
      </trkpt>
      <trkpt lat="45.09957" lon="4.57648">
        <ele>831</ele>
        <time>2019-08-21T18:53:07 02:00</time>
      </trkpt>
      <trkpt lat="45.09931" lon="4.57736">
        <ele>832</ele>
        <time>2019-08-21T18:53:12 02:00</time>
      </trkpt>
      <trkpt lat="45.09931" lon="4.5777">
        <ele>833</ele>
        <time>2019-08-21T18:53:17 02:00</time>
      </trkpt>
      <trkpt lat="45.09887" lon="4.57723">
        <ele>810</ele>
        <time>2019-08-21T18:53:22 02:00</time>
      </trkpt>
      <trkpt lat="45.09874" lon="4.57593">
        <ele>782</ele>
        <time>2019-08-21T18:53:27 02:00</time>
      </trkpt>
      <trkpt lat="45.09801" lon="4.57683">
        <ele>766</ele>
        <time>2019-08-21T18:53:32 02:00</time>
      </trkpt>
      <trkpt lat="45.09834" lon="4.57585">
        <ele>764</ele>
        <time>2019-08-21T18:53:37 02:00</time>
      </trkpt>
      <trkpt lat="45.09852" lon="4.57527">
        <ele>757</ele>
        <time>2019-08-21T18:53:42 02:00</time>
      </trkpt>
      <trkpt lat="45.09878" lon="4.57469">
        <ele>756</ele>
        <time>2019-08-21T18:53:47 02:00</time>
      </trkpt>
      <trkpt lat="45.09881" lon="4.57445">
        <ele>753</ele>
        <time>2019-08-21T18:53:52 02:00</time>
      </trkpt>
      <trkpt lat="45.09883" lon="4.57387">
        <ele>745</ele>
        <time>2019-08-21T18:53:57 02:00</time>
      </trkpt>
      <trkpt lat="45.0988" lon="4.57332">
        <ele>738</ele>
        <time>2019-08-21T18:54:02 02:00</time>
      </trkpt>
      <trkpt lat="45.09868" lon="4.57254">
        <ele>732</ele>
        <time>2019-08-21T18:54:07 02:00</time>
      </trkpt>
      <trkpt lat="45.09873" lon="4.57174">
        <ele>734</ele>
        <time>2019-08-21T18:54:12 02:00</time>
      </trkpt>
      <trkpt lat="45.09897" lon="4.5709">
        <ele>735</ele>
        <time>2019-08-21T18:54:17 02:00</time>
      </trkpt>
      <trkpt lat="45.09924" lon="4.57012">
        <ele>735</ele>
        <time>2019-08-21T18:54:22 02:00</time>
      </trkpt>
      <trkpt lat="45.09913" lon="4.56996">
        <ele>736</ele>
        <time>2019-08-21T18:54:27 02:00</time>
      </trkpt>
      <trkpt lat="45.09897" lon="4.56993">
        <ele>740</ele>
        <time>2019-08-21T18:54:32 02:00</time>
      </trkpt>
      <trkpt lat="45.09833" lon="4.57074">
        <ele>735</ele>
        <time>2019-08-21T18:54:37 02:00</time>
      </trkpt>
      <trkpt lat="45.0979" lon="4.57186">
        <ele>734</ele>
        <time>2019-08-21T18:54:42 02:00</time>
      </trkpt>
      <trkpt lat="45.09751" lon="4.57218">
        <ele>734</ele>
        <time>2019-08-21T18:54:47 02:00</time>
      </trkpt>
      <trkpt lat="45.09716" lon="4.57231">
        <ele>737</ele>
        <time>2019-08-21T18:54:52 02:00</time>
      </trkpt>
      <trkpt lat="45.09625" lon="4.57256">
        <ele>745</ele>
        <time>2019-08-21T18:54:57 02:00</time>
      </trkpt>
      <trkpt lat="45.09526" lon="4.57245">
        <ele>756</ele>
        <time>2019-08-21T18:55:02 02:00</time>
      </trkpt>
      <trkpt lat="45.09491" lon="4.57259">
        <ele>754</ele>
        <time>2019-08-21T18:55:07 02:00</time>
      </trkpt>
      <trkpt lat="45.09459" lon="4.57259">
        <ele>760</ele>
        <time>2019-08-21T18:55:12 02:00</time>
      </trkpt>
      <trkpt lat="45.09404" lon="4.57307">
        <ele>754</ele>
        <time>2019-08-21T18:55:17 02:00</time>
      </trkpt>
      <trkpt lat="45.09342" lon="4.5736">
        <ele>753</ele>
        <time>2019-08-21T18:55:22 02:00</time>
      </trkpt>
      <trkpt lat="45.09312" lon="4.57443">
        <ele>741</ele>
        <time>2019-08-21T18:55:27 02:00</time>
      </trkpt>
      <trkpt lat="45.09236" lon="4.57515">
        <ele>743</ele>
        <time>2019-08-21T18:55:32 02:00</time>
      </trkpt>
      <trkpt lat="45.09194" lon="4.57545">
        <ele>746</ele>
        <time>2019-08-21T18:55:37 02:00</time>
      </trkpt>
      <trkpt lat="45.09151" lon="4.57635">
        <ele>734</ele>
        <time>2019-08-21T18:55:42 02:00</time>
      </trkpt>
      <trkpt lat="45.0908" lon="4.57642">
        <ele>732</ele>
        <time>2019-08-21T18:55:47 02:00</time>
      </trkpt>
      <trkpt lat="45.09042" lon="4.57605">
        <ele>734</ele>
        <time>2019-08-21T18:55:52 02:00</time>
      </trkpt>
      <trkpt lat="45.08997" lon="4.57534">
        <ele>738</ele>
        <time>2019-08-21T18:55:57 02:00</time>
      </trkpt>
      <trkpt lat="45.0897" lon="4.57457">
        <ele>742</ele>
        <time>2019-08-21T18:56:02 02:00</time>
      </trkpt>
      <trkpt lat="45.08901" lon="4.57319">
        <ele>749</ele>
        <time>2019-08-21T18:56:07 02:00</time>
      </trkpt>
      <trkpt lat="45.08851" lon="4.57274">
        <ele>745</ele>
        <time>2019-08-21T18:56:12 02:00</time>
      </trkpt>
      <trkpt lat="45.08805" lon="4.57251">
        <ele>739</ele>
        <time>2019-08-21T18:56:17 02:00</time>
      </trkpt>
      <trkpt lat="45.08757" lon="4.57236">
        <ele>735</ele>
        <time>2019-08-21T18:56:22 02:00</time>
      </trkpt>
      <trkpt lat="45.08714" lon="4.57272">
        <ele>726</ele>
        <time>2019-08-21T18:56:27 02:00</time>
      </trkpt>
      <trkpt lat="45.0867" lon="4.57321">
        <ele>720</ele>
        <time>2019-08-21T18:56:32 02:00</time>
      </trkpt>
      <trkpt lat="45.08609" lon="4.57304">
        <ele>713</ele>
        <time>2019-08-21T18:56:37 02:00</time>
      </trkpt>
      <trkpt lat="45.08599" lon="4.57197">
        <ele>698</ele>
        <time>2019-08-21T18:56:42 02:00</time>
      </trkpt>
      <trkpt lat="45.08615" lon="4.57008">
        <ele>686</ele>
        <time>2019-08-21T18:56:47 02:00</time>
      </trkpt>
      <trkpt lat="45.08621" lon="4.56905">
        <ele>690</ele>
        <time>2019-08-21T18:56:52 02:00</time>
      </trkpt>
      <trkpt lat="45.0861" lon="4.56871">
        <ele>689</ele>
        <time>2019-08-21T18:56:57 02:00</time>
      </trkpt>
      <trkpt lat="45.08551" lon="4.56963">
        <ele>676</ele>
        <time>2019-08-21T18:57:02 02:00</time>
      </trkpt>
      <trkpt lat="45.08481" lon="4.56971">
        <ele>675</ele>
        <time>2019-08-21T18:57:07 02:00</time>
      </trkpt>
      <trkpt lat="45.08444" lon="4.56951">
        <ele>681</ele>
        <time>2019-08-21T18:57:12 02:00</time>
      </trkpt>
      <trkpt lat="45.0841" lon="4.56923">
        <ele>691</ele>
        <time>2019-08-21T18:57:17 02:00</time>
      </trkpt>
      <trkpt lat="45.08376" lon="4.56914">
        <ele>693</ele>
        <time>2019-08-21T18:57:22 02:00</time>
      </trkpt>
      <trkpt lat="45.08314" lon="4.56961">
        <ele>682</ele>
        <time>2019-08-21T18:57:27 02:00</time>
      </trkpt>
      <trkpt lat="45.08285" lon="4.56957">
        <ele>682</ele>
        <time>2019-08-21T18:57:32 02:00</time>
      </trkpt>
      <trkpt lat="45.08254" lon="4.56932">
        <ele>685</ele>
        <time>2019-08-21T18:57:37 02:00</time>
      </trkpt>
      <trkpt lat="45.08234" lon="4.56887">
        <ele>685</ele>
        <time>2019-08-21T18:57:42 02:00</time>
      </trkpt>
      <trkpt lat="45.0819" lon="4.56768">
        <ele>685</ele>
        <time>2019-08-21T18:57:47 02:00</time>
      </trkpt>
      <trkpt lat="45.08158" lon="4.56687">
        <ele>690</ele>
        <time>2019-08-21T18:57:52 02:00</time>
      </trkpt>
      <trkpt lat="45.08127" lon="4.56663">
        <ele>691</ele>
        <time>2019-08-21T18:57:57 02:00</time>
      </trkpt>
      <trkpt lat="45.08074" lon="4.56629">
        <ele>696</ele>
        <time>2019-08-21T18:58:02 02:00</time>
      </trkpt>
      <trkpt lat="45.08049" lon="4.56607">
        <ele>699</ele>
        <time>2019-08-21T18:58:07 02:00</time>
      </trkpt>
      <trkpt lat="45.08016" lon="4.56594">
        <ele>699</ele>
        <time>2019-08-21T18:58:12 02:00</time>
      </trkpt>
      <trkpt lat="45.07951" lon="4.56575">
        <ele>696</ele>
        <time>2019-08-21T18:58:17 02:00</time>
      </trkpt>
      <trkpt lat="45.07894" lon="4.56571">
        <ele>692</ele>
        <time>2019-08-21T18:58:22 02:00</time>
      </trkpt>
      <trkpt lat="45.07845" lon="4.5654">
        <ele>689</ele>
        <time>2019-08-21T18:58:27 02:00</time>
      </trkpt>
      <trkpt lat="45.07821" lon="4.56553">
        <ele>687</ele>
        <time>2019-08-21T18:58:32 02:00</time>
      </trkpt>
      <trkpt lat="45.0782" lon="4.56523">
        <ele>686</ele>
        <time>2019-08-21T18:58:37 02:00</time>
      </trkpt>
      <trkpt lat="45.07754" lon="4.5653">
        <ele>678</ele>
        <time>2019-08-21T18:58:42 02:00</time>
      </trkpt>
      <trkpt lat="45.07686" lon="4.56547">
        <ele>668</ele>
        <time>2019-08-21T18:58:47 02:00</time>
      </trkpt>
      <trkpt lat="45.07663" lon="4.56583">
        <ele>669</ele>
        <time>2019-08-21T18:58:52 02:00</time>
      </trkpt>
      <trkpt lat="45.07648" lon="4.56628">
        <ele>665</ele>
        <time>2019-08-21T18:58:57 02:00</time>
      </trkpt>
      <trkpt lat="45.07624" lon="4.5671">
        <ele>654</ele>
        <time>2019-08-21T18:59:02 02:00</time>
      </trkpt>
      <trkpt lat="45.07616" lon="4.56758">
        <ele>646</ele>
        <time>2019-08-21T18:59:07 02:00</time>
      </trkpt>
      <trkpt lat="45.07618" lon="4.56806">
        <ele>640</ele>
        <time>2019-08-21T18:59:12 02:00</time>
      </trkpt>
      <trkpt lat="45.07648" lon="4.56875">
        <ele>640</ele>
        <time>2019-08-21T18:59:17 02:00</time>
      </trkpt>
      <trkpt lat="45.07648" lon="4.56907">
        <ele>634</ele>
        <time>2019-08-21T18:59:22 02:00</time>
      </trkpt>
      <trkpt lat="45.07653" lon="4.56939">
        <ele>631</ele>
        <time>2019-08-21T18:59:27 02:00</time>
      </trkpt>
      <trkpt lat="45.07677" lon="4.57002">
        <ele>627</ele>
        <time>2019-08-21T18:59:32 02:00</time>
      </trkpt>
      <trkpt lat="45.07641" lon="4.57082">
        <ele>610</ele>
        <time>2019-08-21T18:59:37 02:00</time>
      </trkpt>
      <trkpt lat="45.07627" lon="4.57134">
        <ele>603</ele>
        <time>2019-08-21T18:59:42 02:00</time>
      </trkpt>
      <trkpt lat="45.07624" lon="4.57184">
        <ele>597</ele>
        <time>2019-08-21T18:59:47 02:00</time>
      </trkpt>
      <trkpt lat="45.07627" lon="4.57248">
        <ele>591</ele>
        <time>2019-08-21T18:59:52 02:00</time>
      </trkpt>
      <trkpt lat="45.07638" lon="4.57287">
        <ele>587</ele>
        <time>2019-08-21T18:59:57 02:00</time>
      </trkpt>
      <trkpt lat="45.07679" lon="4.57334">
        <ele>584</ele>
        <time>2019-08-21T19:00:02 02:00</time>
      </trkpt>
      <trkpt lat="45.07703" lon="4.57373">
        <ele>580</ele>
        <time>2019-08-21T19:00:07 02:00</time>
      </trkpt>
      <trkpt lat="45.07707" lon="4.57422">
        <ele>575</ele>
        <time>2019-08-21T19:00:12 02:00</time>
      </trkpt>
      <trkpt lat="45.07695" lon="4.5751">
        <ele>567</ele>
        <time>2019-08-21T19:00:17 02:00</time>
      </trkpt>
      <trkpt lat="45.07668" lon="4.57569">
        <ele>558</ele>
        <time>2019-08-21T19:00:22 02:00</time>
      </trkpt>
      <trkpt lat="45.07676" lon="4.57592">
        <ele>556</ele>
        <time>2019-08-21T19:00:27 02:00</time>
      </trkpt>
      <trkpt lat="45.07735" lon="4.57633">
        <ele>556</ele>
        <time>2019-08-21T19:00:32 02:00</time>
      </trkpt>
      <trkpt lat="45.07769" lon="4.57658">
        <ele>554</ele>
        <time>2019-08-21T19:00:37 02:00</time>
      </trkpt>
      <trkpt lat="45.078" lon="4.57695">
        <ele>553</ele>
        <time>2019-08-21T19:00:42 02:00</time>
      </trkpt>
      <trkpt lat="45.07817" lon="4.57736">
        <ele>550</ele>
        <time>2019-08-21T19:00:47 02:00</time>
      </trkpt>
      <trkpt lat="45.07845" lon="4.57757">
        <ele>549</ele>
        <time>2019-08-21T19:00:52 02:00</time>
      </trkpt>
      <trkpt lat="45.07874" lon="4.57783">
        <ele>550</ele>
        <time>2019-08-21T19:00:57 02:00</time>
      </trkpt>
      <trkpt lat="45.07938" lon="4.57778">
        <ele>554</ele>
        <time>2019-08-21T19:01:02 02:00</time>
      </trkpt>
      <trkpt lat="45.07955" lon="4.5779">
        <ele>555</ele>
        <time>2019-08-21T19:01:07 02:00</time>
      </trkpt>
      <trkpt lat="45.0796" lon="4.57821">
        <ele>554</ele>
        <time>2019-08-21T19:01:12 02:00</time>
      </trkpt>
      <trkpt lat="45.0797" lon="4.57851">
        <ele>553</ele>
        <time>2019-08-21T19:01:17 02:00</time>
      </trkpt>
      <trkpt lat="45.08005" lon="4.57868">
        <ele>556</ele>
        <time>2019-08-21T19:01:22 02:00</time>
      </trkpt>
      <trkpt lat="45.08022" lon="4.57871">
        <ele>556</ele>
        <time>2019-08-21T19:01:27 02:00</time>
      </trkpt>
      <trkpt lat="45.08059" lon="4.57922">
        <ele>554</ele>
        <time>2019-08-21T19:01:32 02:00</time>
      </trkpt>
      <trkpt lat="45.0813" lon="4.57967">
        <ele>556</ele>
        <time>2019-08-21T19:01:37 02:00</time>
      </trkpt>
      <trkpt lat="45.08159" lon="4.5798">
        <ele>558</ele>
        <time>2019-08-21T19:01:42 02:00</time>
      </trkpt>
      <trkpt lat="45.08171" lon="4.58021">
        <ele>556</ele>
        <time>2019-08-21T19:01:47 02:00</time>
      </trkpt>
      <trkpt lat="45.08188" lon="4.58098">
        <ele>551</ele>
        <time>2019-08-21T19:01:52 02:00</time>
      </trkpt>
      <trkpt lat="45.08186" lon="4.58112">
        <ele>549</ele>
        <time>2019-08-21T19:01:57 02:00</time>
      </trkpt>
      <trkpt lat="45.08186" lon="4.58133">
        <ele>547</ele>
        <time>2019-08-21T19:02:02 02:00</time>
      </trkpt>
      <trkpt lat="45.08189" lon="4.58162">
        <ele>545</ele>
        <time>2019-08-21T19:02:07 02:00</time>
      </trkpt>
      <trkpt lat="45.08186" lon="4.58192">
        <ele>542</ele>
        <time>2019-08-21T19:02:12 02:00</time>
      </trkpt>
      <trkpt lat="45.08184" lon="4.58223">
        <ele>540</ele>
        <time>2019-08-21T19:02:17 02:00</time>
      </trkpt>
      <trkpt lat="45.08176" lon="4.58275">
        <ele>537</ele>
        <time>2019-08-21T19:02:22 02:00</time>
      </trkpt>
      <trkpt lat="45.0816" lon="4.58315">
        <ele>534</ele>
        <time>2019-08-21T19:02:27 02:00</time>
      </trkpt>
      <trkpt lat="45.08154" lon="4.58366">
        <ele>533</ele>
        <time>2019-08-21T19:02:32 02:00</time>
      </trkpt>
      <trkpt lat="45.08162" lon="4.58403">
        <ele>533</ele>
        <time>2019-08-21T19:02:37 02:00</time>
      </trkpt>
      <trkpt lat="45.0814" lon="4.58394">
        <ele>532</ele>
        <time>2019-08-21T19:02:42 02:00</time>
      </trkpt>
      <trkpt lat="45.0813" lon="4.58378">
        <ele>532</ele>
        <time>2019-08-21T19:02:47 02:00</time>
      </trkpt>
      <trkpt lat="45.08132" lon="4.58319">
        <ele>534</ele>
        <time>2019-08-21T19:02:52 02:00</time>
      </trkpt>
      <trkpt lat="45.08078" lon="4.5831">
        <ele>535</ele>
        <time>2019-08-21T19:02:57 02:00</time>
      </trkpt>
      <trkpt lat="45.08061" lon="4.58359">
        <ele>542</ele>
        <time>2019-08-21T19:03:02 02:00</time>
      </trkpt>
      <trkpt lat="45.08064" lon="4.58425">
        <ele>536</ele>
        <time>2019-08-21T19:03:07 02:00</time>
      </trkpt>
      <trkpt lat="45.08056" lon="4.58496">
        <ele>535</ele>
        <time>2019-08-21T19:03:12 02:00</time>
      </trkpt>
      <trkpt lat="45.08053" lon="4.58547">
        <ele>534</ele>
        <time>2019-08-21T19:03:17 02:00</time>
      </trkpt>
      <trkpt lat="45.08042" lon="4.58603">
        <ele>535</ele>
        <time>2019-08-21T19:03:22 02:00</time>
      </trkpt>
      <trkpt lat="45.0801" lon="4.58646">
        <ele>540</ele>
        <time>2019-08-21T19:03:27 02:00</time>
      </trkpt>
      <trkpt lat="45.07961" lon="4.58668">
        <ele>555</ele>
        <time>2019-08-21T19:03:32 02:00</time>
      </trkpt>
      <trkpt lat="45.07968" lon="4.58758">
        <ele>547</ele>
        <time>2019-08-21T19:03:37 02:00</time>
      </trkpt>
      <trkpt lat="45.07988" lon="4.58833">
        <ele>539</ele>
        <time>2019-08-21T19:03:42 02:00</time>
      </trkpt>
      <trkpt lat="45.08027" lon="4.58901">
        <ele>529</ele>
        <time>2019-08-21T19:03:47 02:00</time>
      </trkpt>
      <trkpt lat="45.08041" lon="4.58936">
        <ele>526</ele>
        <time>2019-08-21T19:03:52 02:00</time>
      </trkpt>
      <trkpt lat="45.08027" lon="4.58964">
        <ele>525</ele>
        <time>2019-08-21T19:03:57 02:00</time>
      </trkpt>
      <trkpt lat="45.08042" lon="4.5903">
        <ele>520</ele>
        <time>2019-08-21T19:04:02 02:00</time>
      </trkpt>
      <trkpt lat="45.08079" lon="4.58985">
        <ele>518</ele>
        <time>2019-08-21T19:04:07 02:00</time>
      </trkpt>
      <trkpt lat="45.08106" lon="4.58996">
        <ele>523</ele>
        <time>2019-08-21T19:04:12 02:00</time>
      </trkpt>
      <trkpt lat="45.08124" lon="4.59088">
        <ele>528</ele>
        <time>2019-08-21T19:04:17 02:00</time>
      </trkpt>
      <trkpt lat="45.08138" lon="4.59213">
        <ele>525</ele>
        <time>2019-08-21T19:04:22 02:00</time>
      </trkpt>
      <trkpt lat="45.08154" lon="4.59281">
        <ele>521</ele>
        <time>2019-08-21T19:04:27 02:00</time>
      </trkpt>
      <trkpt lat="45.08175" lon="4.59325">
        <ele>519</ele>
        <time>2019-08-21T19:04:32 02:00</time>
      </trkpt>
      <trkpt lat="45.08192" lon="4.59374">
        <ele>519</ele>
        <time>2019-08-21T19:04:37 02:00</time>
      </trkpt>
      <trkpt lat="45.08203" lon="4.59402">
        <ele>519</ele>
        <time>2019-08-21T19:04:42 02:00</time>
      </trkpt>
      <trkpt lat="45.08194" lon="4.59437">
        <ele>517</ele>
        <time>2019-08-21T19:04:47 02:00</time>
      </trkpt>
      <trkpt lat="45.08176" lon="4.59466">
        <ele>514</ele>
        <time>2019-08-21T19:04:52 02:00</time>
      </trkpt>
      <trkpt lat="45.08173" lon="4.59554">
        <ele>516</ele>
        <time>2019-08-21T19:04:57 02:00</time>
      </trkpt>
      <trkpt lat="45.08167" lon="4.59634">
        <ele>513</ele>
        <time>2019-08-21T19:05:02 02:00</time>
      </trkpt>
      <trkpt lat="45.08189" lon="4.5975">
        <ele>513</ele>
        <time>2019-08-21T19:05:07 02:00</time>
      </trkpt>
      <trkpt lat="45.08226" lon="4.59855">
        <ele>511</ele>
        <time>2019-08-21T19:05:12 02:00</time>
      </trkpt>
      <trkpt lat="45.08262" lon="4.59893">
        <ele>511</ele>
        <time>2019-08-21T19:05:17 02:00</time>
      </trkpt>
      <trkpt lat="45.0827" lon="4.59904">
        <ele>511</ele>
        <time>2019-08-21T19:05:22 02:00</time>
      </trkpt>
      <trkpt lat="45.08257" lon="4.60011">
        <ele>511</ele>
        <time>2019-08-21T19:05:27 02:00</time>
      </trkpt>
      <trkpt lat="45.08239" lon="4.60058">
        <ele>510</ele>
        <time>2019-08-21T19:05:32 02:00</time>
      </trkpt>
      <trkpt lat="45.08241" lon="4.60098">
        <ele>511</ele>
        <time>2019-08-21T19:05:37 02:00</time>
      </trkpt>
      <trkpt lat="45.0826" lon="4.60163">
        <ele>515</ele>
        <time>2019-08-21T19:05:42 02:00</time>
      </trkpt>
      <trkpt lat="45.08286" lon="4.60286">
        <ele>524</ele>
        <time>2019-08-21T19:05:47 02:00</time>
      </trkpt>
      <trkpt lat="45.08306" lon="4.60148">
        <ele>531</ele>
        <time>2019-08-21T19:05:52 02:00</time>
      </trkpt>
      <trkpt lat="45.0832" lon="4.60105">
        <ele>534</ele>
        <time>2019-08-21T19:05:57 02:00</time>
      </trkpt>
      <trkpt lat="45.08388" lon="4.60007">
        <ele>541</ele>
        <time>2019-08-21T19:06:02 02:00</time>
      </trkpt>
      <trkpt lat="45.08412" lon="4.60002">
        <ele>545</ele>
        <time>2019-08-21T19:06:07 02:00</time>
      </trkpt>
      <trkpt lat="45.08457" lon="4.60015">
        <ele>552</ele>
        <time>2019-08-21T19:06:12 02:00</time>
      </trkpt>
      <trkpt lat="45.08506" lon="4.60019">
        <ele>557</ele>
        <time>2019-08-21T19:06:17 02:00</time>
      </trkpt>
      <trkpt lat="45.08598" lon="4.60077">
        <ele>569</ele>
        <time>2019-08-21T19:06:22 02:00</time>
      </trkpt>
      <trkpt lat="45.08651" lon="4.6012">
        <ele>571</ele>
        <time>2019-08-21T19:06:27 02:00</time>
      </trkpt>
      <trkpt lat="45.08724" lon="4.60193">
        <ele>578</ele>
        <time>2019-08-21T19:06:32 02:00</time>
      </trkpt>
      <trkpt lat="45.08761" lon="4.60236">
        <ele>584</ele>
        <time>2019-08-21T19:06:37 02:00</time>
      </trkpt>
      <trkpt lat="45.08774" lon="4.60278">
        <ele>590</ele>
        <time>2019-08-21T19:06:42 02:00</time>
      </trkpt>
      <trkpt lat="45.08688" lon="4.60232">
        <ele>592</ele>
        <time>2019-08-21T19:06:47 02:00</time>
      </trkpt>
      <trkpt lat="45.08642" lon="4.6023">
        <ele>593</ele>
        <time>2019-08-21T19:06:52 02:00</time>
      </trkpt>
      <trkpt lat="45.08606" lon="4.6027">
        <ele>599</ele>
        <time>2019-08-21T19:06:57 02:00</time>
      </trkpt>
      <trkpt lat="45.08536" lon="4.60361">
        <ele>600</ele>
        <time>2019-08-21T19:07:02 02:00</time>
      </trkpt>
      <trkpt lat="45.08495" lon="4.60522">
        <ele>606</ele>
        <time>2019-08-21T19:07:07 02:00</time>
      </trkpt>
      <trkpt lat="45.08482" lon="4.6054">
        <ele>604</ele>
        <time>2019-08-21T19:07:12 02:00</time>
      </trkpt>
      <trkpt lat="45.08469" lon="4.60563">
        <ele>604</ele>
        <time>2019-08-21T19:07:17 02:00</time>
      </trkpt>
      <trkpt lat="45.08459" lon="4.60597">
        <ele>605</ele>
        <time>2019-08-21T19:07:22 02:00</time>
      </trkpt>
      <trkpt lat="45.08457" lon="4.60612">
        <ele>605</ele>
        <time>2019-08-21T19:07:27 02:00</time>
      </trkpt>
      <trkpt lat="45.0848" lon="4.60608">
        <ele>610</ele>
        <time>2019-08-21T19:07:32 02:00</time>
      </trkpt>
      <trkpt lat="45.085" lon="4.60592">
        <ele>613</ele>
        <time>2019-08-21T19:07:37 02:00</time>
      </trkpt>
      <trkpt lat="45.08521" lon="4.60604">
        <ele>621</ele>
        <time>2019-08-21T19:07:42 02:00</time>
      </trkpt>
      <trkpt lat="45.08482" lon="4.60706">
        <ele>615</ele>
        <time>2019-08-21T19:07:47 02:00</time>
      </trkpt>
      <trkpt lat="45.0848" lon="4.60745">
        <ele>614</ele>
        <time>2019-08-21T19:07:52 02:00</time>
      </trkpt>
      <trkpt lat="45.08459" lon="4.60755">
        <ele>607</ele>
        <time>2019-08-21T19:07:57 02:00</time>
      </trkpt>
      <trkpt lat="45.08438" lon="4.60737">
        <ele>601</ele>
        <time>2019-08-21T19:08:02 02:00</time>
      </trkpt>
      <trkpt lat="45.0841" lon="4.60717">
        <ele>594</ele>
        <time>2019-08-21T19:08:07 02:00</time>
      </trkpt>
      <trkpt lat="45.08401" lon="4.60794">
        <ele>588</ele>
        <time>2019-08-21T19:08:12 02:00</time>
      </trkpt>
      <trkpt lat="45.08418" lon="4.60869">
        <ele>585</ele>
        <time>2019-08-21T19:08:17 02:00</time>
      </trkpt>
      <trkpt lat="45.0843" lon="4.60901">
        <ele>585</ele>
        <time>2019-08-21T19:08:22 02:00</time>
      </trkpt>
      <trkpt lat="45.08444" lon="4.61003">
        <ele>581</ele>
        <time>2019-08-21T19:08:27 02:00</time>
      </trkpt>
      <trkpt lat="45.085" lon="4.61197">
        <ele>578</ele>
        <time>2019-08-21T19:08:32 02:00</time>
      </trkpt>
      <trkpt lat="45.08495" lon="4.6123">
        <ele>576</ele>
        <time>2019-08-21T19:08:37 02:00</time>
      </trkpt>
      <trkpt lat="45.08466" lon="4.61225">
        <ele>571</ele>
        <time>2019-08-21T19:08:42 02:00</time>
      </trkpt>
      <trkpt lat="45.08373" lon="4.613">
        <ele>567</ele>
        <time>2019-08-21T19:08:47 02:00</time>
      </trkpt>
      <trkpt lat="45.08318" lon="4.61361">
        <ele>564</ele>
        <time>2019-08-21T19:08:52 02:00</time>
      </trkpt>
      <trkpt lat="45.08304" lon="4.61384">
        <ele>561</ele>
        <time>2019-08-21T19:08:57 02:00</time>
      </trkpt>
      <trkpt lat="45.08309" lon="4.61429">
        <ele>562</ele>
        <time>2019-08-21T19:09:02 02:00</time>
      </trkpt>
      <trkpt lat="45.08321" lon="4.61526">
        <ele>560</ele>
        <time>2019-08-21T19:09:07 02:00</time>
      </trkpt>
      <trkpt lat="45.08329" lon="4.61605">
        <ele>554</ele>
        <time>2019-08-21T19:09:12 02:00</time>
      </trkpt>
      <trkpt lat="45.0836" lon="4.61697">
        <ele>557</ele>
        <time>2019-08-21T19:09:17 02:00</time>
      </trkpt>
      <trkpt lat="45.084" lon="4.61782">
        <ele>562</ele>
        <time>2019-08-21T19:09:22 02:00</time>
      </trkpt>
      <trkpt lat="45.08414" lon="4.61862">
        <ele>562</ele>
        <time>2019-08-21T19:09:27 02:00</time>
      </trkpt>
      <trkpt lat="45.08415" lon="4.61946">
        <ele>561</ele>
        <time>2019-08-21T19:09:32 02:00</time>
      </trkpt>
      <trkpt lat="45.08398" lon="4.62004">
        <ele>558</ele>
        <time>2019-08-21T19:09:37 02:00</time>
      </trkpt>
      <trkpt lat="45.08374" lon="4.62103">
        <ele>562</ele>
        <time>2019-08-21T19:09:42 02:00</time>
      </trkpt>
      <trkpt lat="45.08376" lon="4.62142">
        <ele>564</ele>
        <time>2019-08-21T19:09:47 02:00</time>
      </trkpt>
      <trkpt lat="45.08392" lon="4.62172">
        <ele>567</ele>
        <time>2019-08-21T19:09:52 02:00</time>
      </trkpt>
      <trkpt lat="45.08364" lon="4.62219">
        <ele>562</ele>
        <time>2019-08-21T19:09:57 02:00</time>
      </trkpt>
      <trkpt lat="45.08342" lon="4.62274">
        <ele>557</ele>
        <time>2019-08-21T19:10:02 02:00</time>
      </trkpt>
      <trkpt lat="45.08292" lon="4.62352">
        <ele>550</ele>
        <time>2019-08-21T19:10:07 02:00</time>
      </trkpt>
      <trkpt lat="45.08276" lon="4.62412">
        <ele>547</ele>
        <time>2019-08-21T19:10:12 02:00</time>
      </trkpt>
      <trkpt lat="45.08274" lon="4.62491">
        <ele>545</ele>
        <time>2019-08-21T19:10:17 02:00</time>
      </trkpt>
      <trkpt lat="45.08282" lon="4.62575">
        <ele>538</ele>
        <time>2019-08-21T19:10:22 02:00</time>
      </trkpt>
      <trkpt lat="45.08304" lon="4.62617">
        <ele>536</ele>
        <time>2019-08-21T19:10:27 02:00</time>
      </trkpt>
      <trkpt lat="45.0841" lon="4.62649">
        <ele>533</ele>
        <time>2019-08-21T19:10:32 02:00</time>
      </trkpt>
      <trkpt lat="45.08411" lon="4.62686">
        <ele>531</ele>
        <time>2019-08-21T19:10:37 02:00</time>
      </trkpt>
      <trkpt lat="45.08453" lon="4.62712">
        <ele>530</ele>
        <time>2019-08-21T19:10:42 02:00</time>
      </trkpt>
      <trkpt lat="45.08454" lon="4.62777">
        <ele>526</ele>
        <time>2019-08-21T19:10:47 02:00</time>
      </trkpt>
      <trkpt lat="45.08464" lon="4.62851">
        <ele>522</ele>
        <time>2019-08-21T19:10:52 02:00</time>
      </trkpt>
      <trkpt lat="45.08541" lon="4.63001">
        <ele>515</ele>
        <time>2019-08-21T19:10:57 02:00</time>
      </trkpt>
      <trkpt lat="45.08587" lon="4.63059">
        <ele>513</ele>
        <time>2019-08-21T19:11:02 02:00</time>
      </trkpt>
      <trkpt lat="45.08616" lon="4.63066">
        <ele>513</ele>
        <time>2019-08-21T19:11:07 02:00</time>
      </trkpt>
      <trkpt lat="45.08735" lon="4.63026">
        <ele>515</ele>
        <time>2019-08-21T19:11:12 02:00</time>
      </trkpt>
      <trkpt lat="45.08767" lon="4.63098">
        <ele>507</ele>
        <time>2019-08-21T19:11:17 02:00</time>
      </trkpt>
      <trkpt lat="45.08789" lon="4.63136">
        <ele>502</ele>
        <time>2019-08-21T19:11:22 02:00</time>
      </trkpt>
      <trkpt lat="45.08817" lon="4.63182">
        <ele>497</ele>
        <time>2019-08-21T19:11:27 02:00</time>
      </trkpt>
      <trkpt lat="45.08839" lon="4.63202">
        <ele>495</ele>
        <time>2019-08-21T19:11:32 02:00</time>
      </trkpt>
      <trkpt lat="45.08847" lon="4.63227">
        <ele>492</ele>
        <time>2019-08-21T19:11:37 02:00</time>
      </trkpt>
      <trkpt lat="45.08863" lon="4.63267">
        <ele>488</ele>
        <time>2019-08-21T19:11:42 02:00</time>
      </trkpt>
      <trkpt lat="45.08858" lon="4.63297">
        <ele>487</ele>
        <time>2019-08-21T19:11:47 02:00</time>
      </trkpt>
      <trkpt lat="45.08842" lon="4.63325">
        <ele>486</ele>
        <time>2019-08-21T19:11:52 02:00</time>
      </trkpt>
      <trkpt lat="45.08874" lon="4.63314">
        <ele>485</ele>
        <time>2019-08-21T19:11:57 02:00</time>
      </trkpt>
      <trkpt lat="45.08898" lon="4.63332">
        <ele>484</ele>
        <time>2019-08-21T19:12:02 02:00</time>
      </trkpt>
      <trkpt lat="45.08905" lon="4.63334">
        <ele>484</ele>
        <time>2019-08-21T19:12:07 02:00</time>
      </trkpt>
      <trkpt lat="45.08919" lon="4.63295">
        <ele>484</ele>
        <time>2019-08-21T19:12:12 02:00</time>
      </trkpt>
      <trkpt lat="45.08936" lon="4.63287">
        <ele>485</ele>
        <time>2019-08-21T19:12:17 02:00</time>
      </trkpt>
      <trkpt lat="45.08958" lon="4.63299">
        <ele>486</ele>
        <time>2019-08-21T19:12:22 02:00</time>
      </trkpt>
      <trkpt lat="45.0896" lon="4.63329">
        <ele>487</ele>
        <time>2019-08-21T19:12:27 02:00</time>
      </trkpt>
      <trkpt lat="45.08956" lon="4.63389">
        <ele>490</ele>
        <time>2019-08-21T19:12:32 02:00</time>
      </trkpt>
      <trkpt lat="45.08969" lon="4.63418">
        <ele>492</ele>
        <time>2019-08-21T19:12:37 02:00</time>
      </trkpt>
      <trkpt lat="45.08973" lon="4.63454">
        <ele>496</ele>
        <time>2019-08-21T19:12:42 02:00</time>
      </trkpt>
      <trkpt lat="45.08985" lon="4.63475">
        <ele>499</ele>
        <time>2019-08-21T19:12:47 02:00</time>
      </trkpt>
      <trkpt lat="45.08993" lon="4.63514">
        <ele>504</ele>
        <time>2019-08-21T19:12:52 02:00</time>
      </trkpt>
      <trkpt lat="45.08994" lon="4.63536">
        <ele>507</ele>
        <time>2019-08-21T19:12:57 02:00</time>
      </trkpt>
      <trkpt lat="45.09029" lon="4.63584">
        <ele>509</ele>
        <time>2019-08-21T19:13:02 02:00</time>
      </trkpt>
      <trkpt lat="45.09082" lon="4.63659">
        <ele>515</ele>
        <time>2019-08-21T19:13:07 02:00</time>
      </trkpt>
      <trkpt lat="45.09101" lon="4.6369">
        <ele>519</ele>
        <time>2019-08-21T19:13:12 02:00</time>
      </trkpt>
      <trkpt lat="45.09116" lon="4.6379">
        <ele>532</ele>
        <time>2019-08-21T19:13:17 02:00</time>
      </trkpt>
      <trkpt lat="45.09117" lon="4.63807">
        <ele>534</ele>
        <time>2019-08-21T19:13:22 02:00</time>
      </trkpt>
      <trkpt lat="45.09113" lon="4.6381">
        <ele>535</ele>
        <time>2019-08-21T19:13:27 02:00</time>
      </trkpt>
      <trkpt lat="45.09067" lon="4.63778">
        <ele>533</ele>
        <time>2019-08-21T19:13:32 02:00</time>
      </trkpt>
      <trkpt lat="45.09032" lon="4.63777">
        <ele>535</ele>
        <time>2019-08-21T19:13:37 02:00</time>
      </trkpt>
      <trkpt lat="45.09025" lon="4.63795">
        <ele>538</ele>
        <time>2019-08-21T19:13:42 02:00</time>
      </trkpt>
      <trkpt lat="45.09038" lon="4.63837">
        <ele>543</ele>
        <time>2019-08-21T19:13:47 02:00</time>
      </trkpt>
      <trkpt lat="45.09044" lon="4.63855">
        <ele>545</ele>
        <time>2019-08-21T19:13:52 02:00</time>
      </trkpt>
      <trkpt lat="45.0905" lon="4.63897">
        <ele>550</ele>
        <time>2019-08-21T19:13:57 02:00</time>
      </trkpt>
      <trkpt lat="45.09072" lon="4.63937">
        <ele>554</ele>
        <time>2019-08-21T19:14:02 02:00</time>
      </trkpt>
      <trkpt lat="45.09082" lon="4.63973">
        <ele>557</ele>
        <time>2019-08-21T19:14:07 02:00</time>
      </trkpt>
      <trkpt lat="45.09085" lon="4.64">
        <ele>559</ele>
        <time>2019-08-21T19:14:12 02:00</time>
      </trkpt>
      <trkpt lat="45.09031" lon="4.63995">
        <ele>560</ele>
        <time>2019-08-21T19:14:17 02:00</time>
      </trkpt>
      <trkpt lat="45.08994" lon="4.63996">
        <ele>560</ele>
        <time>2019-08-21T19:14:22 02:00</time>
      </trkpt>
      <trkpt lat="45.0898" lon="4.64004">
        <ele>561</ele>
        <time>2019-08-21T19:14:27 02:00</time>
      </trkpt>
      <trkpt lat="45.08972" lon="4.64031">
        <ele>566</ele>
        <time>2019-08-21T19:14:32 02:00</time>
      </trkpt>
      <trkpt lat="45.08941" lon="4.64027">
        <ele>564</ele>
        <time>2019-08-21T19:14:37 02:00</time>
      </trkpt>
      <trkpt lat="45.08894" lon="4.64016">
        <ele>559</ele>
        <time>2019-08-21T19:14:42 02:00</time>
      </trkpt>
      <trkpt lat="45.0886" lon="4.64012">
        <ele>556</ele>
        <time>2019-08-21T19:14:47 02:00</time>
      </trkpt>
      <trkpt lat="45.08784" lon="4.64042">
        <ele>556</ele>
        <time>2019-08-21T19:14:52 02:00</time>
      </trkpt>
      <trkpt lat="45.08754" lon="4.64067">
        <ele>559</ele>
        <time>2019-08-21T19:14:57 02:00</time>
      </trkpt>
      <trkpt lat="45.08745" lon="4.64067">
        <ele>559</ele>
        <time>2019-08-21T19:15:02 02:00</time>
      </trkpt>
      <trkpt lat="45.08723" lon="4.64052">
        <ele>557</ele>
        <time>2019-08-21T19:15:07 02:00</time>
      </trkpt>
      <trkpt lat="45.08705" lon="4.64029">
        <ele>553</ele>
        <time>2019-08-21T19:15:12 02:00</time>
      </trkpt>
      <trkpt lat="45.08659" lon="4.64023">
        <ele>553</ele>
        <time>2019-08-21T19:15:17 02:00</time>
      </trkpt>
      <trkpt lat="45.0863" lon="4.6403">
        <ele>551</ele>
        <time>2019-08-21T19:15:22 02:00</time>
      </trkpt>
      <trkpt lat="45.08597" lon="4.64062">
        <ele>554</ele>
        <time>2019-08-21T19:15:27 02:00</time>
      </trkpt>
      <trkpt lat="45.08545" lon="4.64236">
        <ele>564</ele>
        <time>2019-08-21T19:15:32 02:00</time>
      </trkpt>
      <trkpt lat="45.08576" lon="4.64232">
        <ele>570</ele>
        <time>2019-08-21T19:15:37 02:00</time>
      </trkpt>
      <trkpt lat="45.086" lon="4.64195">
        <ele>573</ele>
        <time>2019-08-21T19:15:42 02:00</time>
      </trkpt>
      <trkpt lat="45.08616" lon="4.64182">
        <ele>574</ele>
        <time>2019-08-21T19:15:47 02:00</time>
      </trkpt>
      <trkpt lat="45.08623" lon="4.642">
        <ele>577</ele>
        <time>2019-08-21T19:15:52 02:00</time>
      </trkpt>
      <trkpt lat="45.08632" lon="4.6424">
        <ele>582</ele>
        <time>2019-08-21T19:15:57 02:00</time>
      </trkpt>
      <trkpt lat="45.08659" lon="4.64263">
        <ele>588</ele>
        <time>2019-08-21T19:16:02 02:00</time>
      </trkpt>
      <trkpt lat="45.08659" lon="4.64306">
        <ele>592</ele>
        <time>2019-08-21T19:16:07 02:00</time>
      </trkpt>
      <trkpt lat="45.08676" lon="4.64323">
        <ele>596</ele>
        <time>2019-08-21T19:16:12 02:00</time>
      </trkpt>
      <trkpt lat="45.08685" lon="4.64333">
        <ele>599</ele>
        <time>2019-08-21T19:16:17 02:00</time>
      </trkpt>
      <trkpt lat="45.08711" lon="4.64343">
        <ele>602</ele>
        <time>2019-08-21T19:16:22 02:00</time>
      </trkpt>
      <trkpt lat="45.08723" lon="4.64354">
        <ele>602</ele>
        <time>2019-08-21T19:16:27 02:00</time>
      </trkpt>
      <trkpt lat="45.08797" lon="4.64365">
        <ele>609</ele>
        <time>2019-08-21T19:16:32 02:00</time>
      </trkpt>
      <trkpt lat="45.08858" lon="4.64369">
        <ele>612</ele>
        <time>2019-08-21T19:16:37 02:00</time>
      </trkpt>
      <trkpt lat="45.08881" lon="4.64383">
        <ele>613</ele>
        <time>2019-08-21T19:16:42 02:00</time>
      </trkpt>
      <trkpt lat="45.08926" lon="4.64413">
        <ele>618</ele>
        <time>2019-08-21T19:16:47 02:00</time>
      </trkpt>
      <trkpt lat="45.08993" lon="4.64418">
        <ele>625</ele>
        <time>2019-08-21T19:16:52 02:00</time>
      </trkpt>
      <trkpt lat="45.09075" lon="4.64456">
        <ele>633</ele>
        <time>2019-08-21T19:16:57 02:00</time>
      </trkpt>
      <trkpt lat="45.09115" lon="4.64469">
        <ele>633</ele>
        <time>2019-08-21T19:17:02 02:00</time>
      </trkpt>
      <trkpt lat="45.09132" lon="4.64491">
        <ele>636</ele>
        <time>2019-08-21T19:17:07 02:00</time>
      </trkpt>
      <trkpt lat="45.09169" lon="4.64511">
        <ele>635</ele>
        <time>2019-08-21T19:17:12 02:00</time>
      </trkpt>
      <trkpt lat="45.09176" lon="4.64517">
        <ele>636</ele>
        <time>2019-08-21T19:17:17 02:00</time>
      </trkpt>
      <trkpt lat="45.09202" lon="4.64516">
        <ele>634</ele>
        <time>2019-08-21T19:17:22 02:00</time>
      </trkpt>
      <trkpt lat="45.09241" lon="4.64542">
        <ele>636</ele>
        <time>2019-08-21T19:17:27 02:00</time>
      </trkpt>
      <trkpt lat="45.09272" lon="4.64542">
        <ele>634</ele>
        <time>2019-08-21T19:17:32 02:00</time>
      </trkpt>
      <trkpt lat="45.09342" lon="4.64538">
        <ele>630</ele>
        <time>2019-08-21T19:17:37 02:00</time>
      </trkpt>
      <trkpt lat="45.09346" lon="4.6459">
        <ele>637</ele>
        <time>2019-08-21T19:17:42 02:00</time>
      </trkpt>
      <trkpt lat="45.09359" lon="4.64633">
        <ele>639</ele>
        <time>2019-08-21T19:17:47 02:00</time>
      </trkpt>
      <trkpt lat="45.09371" lon="4.64688">
        <ele>642</ele>
        <time>2019-08-21T19:17:52 02:00</time>
      </trkpt>
      <trkpt lat="45.09379" lon="4.64783">
        <ele>644</ele>
        <time>2019-08-21T19:17:57 02:00</time>
      </trkpt>
      <trkpt lat="45.09376" lon="4.64965">
        <ele>637</ele>
        <time>2019-08-21T19:18:02 02:00</time>
      </trkpt>
      <trkpt lat="45.09402" lon="4.64963">
        <ele>635</ele>
        <time>2019-08-21T19:18:07 02:00</time>
      </trkpt>
      <trkpt lat="45.09419" lon="4.64975">
        <ele>633</ele>
        <time>2019-08-21T19:18:12 02:00</time>
      </trkpt>
      <trkpt lat="45.0943" lon="4.65012">
        <ele>630</ele>
        <time>2019-08-21T19:18:17 02:00</time>
      </trkpt>
      <trkpt lat="45.09428" lon="4.65039">
        <ele>628</ele>
        <time>2019-08-21T19:18:22 02:00</time>
      </trkpt>
      <trkpt lat="45.09394" lon="4.65068">
        <ele>627</ele>
        <time>2019-08-21T19:18:27 02:00</time>
      </trkpt>
      <trkpt lat="45.094" lon="4.65169">
        <ele>621</ele>
        <time>2019-08-21T19:18:32 02:00</time>
      </trkpt>
      <trkpt lat="45.09398" lon="4.65203">
        <ele>619</ele>
        <time>2019-08-21T19:18:37 02:00</time>
      </trkpt>
    </trkseg>
  </trk>
</gpx>